createdAt,value
2019-05-03T00:00:11.449Z,99281.83
2019-05-03T00:02:41.705Z,99292.34
2019-05-03T00:05:12.511Z,99284.22
2019-05-03T00:07:42.042Z,99286.75
2019-05-03T00:10:09.344Z,99289.05
2019-05-03T00:12:36.179Z,99285.32
2019-05-03T00:15:07.727Z,99284.19
2019-05-03T00:17:34.299Z,99289.70
2019-05-03T00:20:02.329Z,99288.92
2019-05-03T00:22:29.591Z,99288.22
2019-05-03T00:25:05.284Z,99284.94
2019-05-03T00:27:24.895Z,99280.66
2019-05-03T00:29:52.391Z,99278.45
2019-05-03T00:32:21.598Z,99280.16
2019-05-03T00:34:52.059Z,99276.39
2019-05-03T00:37:22.089Z,99269.23
2019-05-03T00:39:52.384Z,99282.36
2019-05-03T00:42:20.082Z,99278.12
2019-05-03T00:44:46.723Z,99277.73
2019-05-03T00:47:13.457Z,99273.31
2019-05-03T00:49:40.103Z,99271.82
2019-05-03T00:52:06.861Z,99270.30
2019-05-03T00:54:33.671Z,99276.26
2019-05-03T00:57:02.546Z,99273.67
2019-05-03T00:59:29.009Z,99270.86
2019-05-03T01:01:55.691Z,99269.73
2019-05-03T01:04:22.436Z,99276.17
2019-05-03T01:06:49.181Z,99270.73
2019-05-03T01:09:17.657Z,99273.27
2019-05-03T01:11:44.403Z,99277.70
2019-05-03T01:14:11.991Z,99278.93
2019-05-03T01:16:38.937Z,99270.39
2019-05-03T01:19:05.507Z,99276.91
2019-05-03T01:21:32.165Z,99271.62
2019-05-03T01:23:58.875Z,99277.57
2019-05-03T01:26:25.536Z,99267.49
2019-05-03T01:28:52.443Z,99258.58
2019-05-03T01:31:19.461Z,99255.02
2019-05-03T01:33:46.034Z,99257.70
2019-05-03T01:36:12.944Z,99254.91
2019-05-03T01:38:39.511Z,99249.21
2019-05-03T01:41:06.194Z,99241.48
2019-05-03T01:43:32.799Z,99247.16
2019-05-03T01:45:59.590Z,99238.17
2019-05-03T01:48:28.169Z,99232.81
2019-05-03T01:50:56.768Z,99237.06
2019-05-03T01:53:25.313Z,99232.58
2019-05-03T01:55:52.393Z,99224.86
2019-05-03T01:58:22.363Z,99219.16
2019-05-03T02:00:52.833Z,99231.08
2019-05-03T02:03:21.841Z,99234.00
2019-05-03T02:05:52.044Z,99235.52
2019-05-03T02:08:18.914Z,99233.42
2019-05-03T02:10:45.687Z,99243.66
2019-05-03T02:13:12.400Z,99238.69
2019-05-03T02:15:39.086Z,99238.49
2019-05-03T02:18:05.926Z,99239.07
2019-05-03T02:20:32.753Z,99243.11
2019-05-03T02:22:59.474Z,99225.23
2019-05-03T02:25:26.238Z,99231.66
2019-05-03T02:27:54.424Z,99235.21
2019-05-03T02:30:21.207Z,99235.21
2019-05-03T02:32:47.878Z,99238.13
2019-05-03T02:35:15.150Z,99243.68
2019-05-03T02:37:44.343Z,99247.36
2019-05-03T02:40:13.183Z,99254.48
2019-05-03T02:42:42.144Z,99240.00
2019-05-03T02:45:15.487Z,99231.36
2019-05-03T02:47:47.028Z,99228.92
2019-05-03T02:50:16.685Z,99229.66
2019-05-03T02:52:45.563Z,99231.37
2019-05-03T02:55:15.636Z,99234.30
2019-05-03T02:57:41.692Z,99233.04
2019-05-03T03:00:12.170Z,99240.00
2019-05-03T03:02:40.523Z,99236.98
2019-05-03T03:05:09.559Z,99233.23
2019-05-03T03:07:37.838Z,99240.28
2019-05-03T03:10:06.412Z,99239.17
2019-05-03T03:12:36.995Z,99242.73
2019-05-03T03:15:06.238Z,99237.95
2019-05-03T03:17:36.165Z,99234.29
2019-05-03T03:20:05.814Z,99239.91
2019-05-03T03:22:36.254Z,99243.56
2019-05-03T03:25:06.175Z,99250.52
2019-05-03T03:27:38.474Z,99253.16
2019-05-03T03:30:12.453Z,99243.75
2019-05-03T03:32:40.358Z,99249.52
2019-05-03T03:35:14.891Z,99256.38
2019-05-03T03:37:41.624Z,99250.17
2019-05-03T03:40:08.452Z,99253.13
2019-05-03T03:42:39.451Z,99248.77
2019-05-03T03:45:06.751Z,99258.92
2019-05-03T03:47:37.218Z,99259.36
2019-05-03T03:50:05.934Z,99262.91
2019-05-03T03:52:35.863Z,99258.20
2019-05-03T03:55:06.186Z,99254.95
2019-05-03T03:57:35.665Z,99258.80
2019-05-03T04:00:06.812Z,99256.02
2019-05-03T04:02:35.392Z,99264.63
2019-05-03T04:05:05.558Z,99267.95
2019-05-03T04:07:36.111Z,99269.20
2019-05-03T04:10:06.574Z,99266.02
2019-05-03T04:12:35.231Z,99274.16
2019-05-03T04:15:06.333Z,99274.38
2019-05-03T04:17:36.115Z,99271.73
2019-05-03T04:20:06.698Z,99275.24
2019-05-03T04:22:36.336Z,99275.30
2019-05-03T04:25:05.991Z,99282.38
2019-05-03T04:27:36.429Z,99284.33
2019-05-03T04:30:05.971Z,99281.24
2019-05-03T04:32:32.988Z,99293.59
2019-05-03T04:34:59.726Z,99300.18
2019-05-03T04:37:29.596Z,99302.81
2019-05-03T04:39:56.266Z,99309.23
2019-05-03T04:42:25.362Z,99311.16
2019-05-03T04:44:51.946Z,99313.36
2019-05-03T04:47:18.517Z,99311.23
2019-05-03T04:49:46.321Z,99326.36
2019-05-03T04:52:16.232Z,99322.68
2019-05-03T04:54:45.206Z,99330.03
2019-05-03T04:57:12.134Z,99332.94
2019-05-03T04:59:38.819Z,99332.59
2019-05-03T05:02:06.264Z,99329.59
2019-05-03T05:04:35.511Z,99343.89
2019-05-03T05:07:01.891Z,99343.41
2019-05-03T05:09:28.518Z,99346.54
2019-05-03T05:11:55.274Z,99357.62
2019-05-03T05:14:22.150Z,99359.22
2019-05-03T05:16:48.792Z,99351.70
2019-05-03T05:19:17.477Z,99349.81
2019-05-03T05:21:46.073Z,99360.55
2019-05-03T05:24:15.041Z,99358.48
2019-05-03T05:26:44.632Z,99365.23
2019-05-03T05:29:14.582Z,99367.70
2019-05-03T05:31:41.937Z,99365.80
2019-05-03T05:34:09.089Z,99367.38
2019-05-03T05:36:35.642Z,99379.34
2019-05-03T05:39:05.320Z,99391.20
2019-05-03T05:41:32.479Z,99385.84
2019-05-03T05:43:59.227Z,99389.06
2019-05-03T05:46:27.831Z,99392.98
2019-05-03T05:48:55.536Z,99403.70
2019-05-03T05:51:22.311Z,99393.66
2019-05-03T05:53:48.978Z,99393.08
2019-05-03T05:56:17.592Z,99396.28
2019-05-03T05:58:46.344Z,99396.63
2019-05-03T06:01:15.135Z,99407.93
2019-05-03T06:03:42.003Z,99412.16
2019-05-03T06:06:10.654Z,99409.16
2019-05-03T06:08:39.221Z,99421.69
2019-05-03T06:11:08.095Z,99423.00
2019-05-03T06:13:36.751Z,99428.72
2019-05-03T06:16:05.538Z,99430.94
2019-05-03T06:18:35.334Z,99428.89
2019-05-03T06:21:04.652Z,99441.12
2019-05-03T06:23:34.763Z,99447.95
2019-05-03T06:26:05.006Z,99454.00
2019-05-03T06:28:35.255Z,99445.84
2019-05-03T06:31:04.777Z,99456.75
2019-05-03T06:33:31.889Z,99461.98
2019-05-03T06:35:58.651Z,99460.31
2019-05-03T06:38:25.224Z,99456.86
2019-05-03T06:40:54.379Z,99464.08
2019-05-03T06:43:21.273Z,99470.07
2019-05-03T06:45:50.358Z,99470.17
2019-05-03T06:48:17.715Z,99469.88
2019-05-03T06:50:45.486Z,99469.55
2019-05-03T06:53:13.035Z,99471.48
2019-05-03T06:55:45.544Z,99465.94
2019-05-03T06:58:09.157Z,99472.25
2019-05-03T07:00:37.945Z,99483.09
2019-05-03T07:03:06.606Z,99494.88
2019-05-03T07:05:35.480Z,99489.47
2019-05-03T07:08:05.553Z,99502.79
2019-05-03T07:10:35.318Z,99504.15
2019-05-03T07:13:05.073Z,99506.06
2019-05-03T07:15:32.384Z,99512.13
2019-05-03T07:17:59.141Z,99517.70
2019-05-03T07:20:26.203Z,99513.59
2019-05-03T07:22:55.691Z,99510.78
2019-05-03T07:25:25.313Z,99523.26
2019-05-03T07:27:55.286Z,99523.09
2019-05-03T07:30:21.830Z,99522.64
2019-05-03T07:32:50.355Z,99530.97
2019-05-03T07:35:17.088Z,99536.91
2019-05-03T07:37:45.072Z,99535.23
2019-05-03T07:40:14.710Z,99541.33
2019-05-03T07:42:42.605Z,99533.22
2019-05-03T07:45:11.817Z,99537.55
2019-05-03T07:47:38.499Z,99539.14
2019-05-03T07:50:05.784Z,99540.91
2019-05-03T07:52:34.748Z,99529.25
2019-05-03T07:55:01.996Z,99526.45
2019-05-03T07:57:30.648Z,99527.27
2019-05-03T07:59:57.371Z,99535.10
2019-05-03T08:02:27.100Z,99533.64
2019-05-03T08:04:54.804Z,99532.47
2019-05-03T08:07:23.047Z,99526.61
2019-05-03T08:09:50.197Z,99533.55
2019-05-03T08:12:16.853Z,99542.82
2019-05-03T08:14:44.666Z,99536.66
2019-05-03T08:17:11.913Z,99542.49
2019-05-03T08:19:38.621Z,99542.55
2019-05-03T08:22:05.458Z,99557.03
2019-05-03T08:24:32.130Z,99548.88
2019-05-03T08:26:58.959Z,99553.83
2019-05-03T08:29:25.611Z,99556.73
2019-05-03T08:31:55.274Z,99549.76
2019-05-03T08:34:25.781Z,99554.34
2019-05-03T08:37:50.990Z,99560.13
2019-05-03T08:40:18.564Z,99557.17
2019-05-03T08:42:46.563Z,99571.12
2019-05-03T08:45:16.477Z,99569.50
2019-05-03T08:47:44.852Z,99572.94
2019-05-03T08:50:15.097Z,99575.45
2019-05-03T08:52:40.618Z,99571.80
2019-05-03T08:55:07.620Z,99578.14
2019-05-03T08:57:35.398Z,99576.50
2019-05-03T09:00:07.865Z,99579.22
2019-05-03T09:02:34.631Z,99581.69
2019-05-03T09:05:01.425Z,99583.73
2019-05-03T09:07:28.322Z,99582.17
2019-05-03T09:09:56.962Z,99591.09
2019-05-03T09:12:25.187Z,99593.81
2019-05-03T09:14:52.232Z,99587.75
2019-05-03T09:17:18.886Z,99588.52
2019-05-03T09:19:45.700Z,99585.73
2019-05-03T09:22:12.292Z,99586.05
2019-05-03T09:24:39.136Z,99592.77
2019-05-03T09:27:05.939Z,99588.46
2019-05-03T09:29:41.052Z,99594.06
2019-05-03T09:32:01.364Z,99596.24
2019-05-03T09:34:28.106Z,99593.75
2019-05-03T09:36:55.366Z,99603.99
2019-05-03T09:39:22.134Z,99600.38
2019-05-03T09:41:48.706Z,99601.08
2019-05-03T09:44:15.560Z,99592.13
2019-05-03T09:46:42.187Z,99601.36
2019-05-03T09:49:13.253Z,99597.09
2019-05-03T09:51:37.483Z,99598.05
2019-05-03T09:54:06.072Z,99595.91
2019-05-03T09:56:34.807Z,99594.95
2019-05-03T09:59:05.309Z,99604.95
2019-05-03T10:01:32.015Z,99590.73
2019-05-03T10:03:58.992Z,99594.30
2019-05-03T10:06:25.588Z,99589.13
2019-05-03T10:08:52.362Z,99594.19
2019-05-03T10:11:18.934Z,99596.55
2019-05-03T10:13:48.284Z,99591.50
2019-05-03T10:16:15.568Z,99600.23
2019-05-03T10:18:42.783Z,99594.58
2019-05-03T10:21:09.594Z,99598.45
2019-05-03T10:23:38.056Z,99597.49
2019-05-03T10:26:05.237Z,99591.95
2019-05-03T10:28:32.457Z,99591.40
2019-05-03T10:31:00.925Z,99580.16
2019-05-03T10:33:30.036Z,99587.88
2019-05-03T10:35:56.912Z,99583.14
2019-05-03T10:38:24.621Z,99580.52
2019-05-03T10:40:51.390Z,99585.13
2019-05-03T10:43:17.988Z,99582.05
2019-05-03T10:45:45.046Z,99580.13
2019-05-03T10:48:12.775Z,99577.66
2019-05-03T10:50:40.290Z,99571.83
2019-05-03T10:53:09.092Z,99572.94
2019-05-03T10:55:35.915Z,99575.84
2019-05-03T10:58:05.313Z,99563.50
2019-05-03T11:00:48.236Z,99565.50
2019-05-03T11:03:05.126Z,99565.60
2019-05-03T11:05:32.064Z,99564.02
2019-05-03T11:07:58.732Z,99566.19
2019-05-03T11:10:25.463Z,99569.34
2019-05-03T11:12:52.167Z,99563.27
2019-05-03T11:15:19.039Z,99562.62
2019-05-03T11:17:45.950Z,99566.31
2019-05-03T11:20:28.472Z,99563.23
2019-05-03T11:22:47.092Z,99560.50
2019-05-03T11:25:13.872Z,99567.27
2019-05-03T11:27:44.606Z,99576.39
2019-05-03T11:30:11.806Z,99565.09
2019-05-03T11:32:40.375Z,99569.95
2019-05-03T11:35:11.676Z,99556.94
2019-05-03T11:37:40.704Z,99551.56
2019-05-03T11:40:08.264Z,99550.86
2019-05-03T11:42:35.324Z,99552.53
2019-05-03T11:45:06.587Z,99562.28
2019-05-03T11:47:34.830Z,99561.30
2019-05-03T11:50:05.469Z,99562.04
2019-05-03T11:52:32.073Z,99566.52
2019-05-03T11:54:58.884Z,99554.17
2019-05-03T11:57:27.401Z,99551.88
2019-05-03T11:59:54.874Z,99559.05
2019-05-03T12:02:24.757Z,99540.94
2019-05-03T12:04:51.508Z,99539.56
2019-05-03T12:07:20.128Z,99549.45
2019-05-03T12:09:46.688Z,99555.52
2019-05-03T12:12:15.234Z,99545.31
2019-05-03T12:14:45.296Z,99541.14
2019-05-03T12:17:21.023Z,99545.77
2019-05-03T12:19:44.144Z,99535.27
2019-05-03T12:22:12.182Z,99541.64
2019-05-03T12:24:39.976Z,99552.45
2019-05-03T12:27:07.099Z,99544.46
2019-05-03T12:29:35.265Z,99541.23
2019-05-03T12:32:02.492Z,99539.82
2019-05-03T12:34:29.205Z,99534.70
2019-05-03T12:36:55.770Z,99546.92
2019-05-03T12:39:27.375Z,99539.66
2019-05-03T12:41:51.166Z,99543.01
2019-05-03T12:44:17.757Z,99535.98
2019-05-03T12:46:44.999Z,99516.83
2019-05-03T12:49:12.071Z,99530.67
2019-05-03T12:51:38.650Z,99528.72
2019-05-03T12:54:05.254Z,99527.75
2019-05-03T12:56:32.934Z,99526.31
2019-05-03T12:59:02.498Z,99528.98
2019-05-03T13:01:41.021Z,99538.05
2019-05-03T13:04:02.592Z,99536.18
2019-05-03T13:06:31.121Z,99534.53
2019-05-03T13:08:57.878Z,99515.70
2019-05-03T13:11:25.162Z,99525.50
2019-05-03T13:13:51.960Z,99539.59
2019-05-03T13:16:20.055Z,99536.84
2019-05-03T13:18:47.124Z,99535.41
2019-05-03T13:21:13.921Z,99532.77
2019-05-03T13:23:40.621Z,99529.97
2019-05-03T13:26:07.707Z,99517.88
2019-05-03T13:28:34.632Z,99521.17
2019-05-03T13:31:01.621Z,99535.55
2019-05-03T13:33:28.262Z,99532.25
2019-05-03T13:35:55.247Z,99534.14
2019-05-03T13:38:22.303Z,99529.47
2019-05-03T13:40:48.948Z,99530.31
2019-05-03T13:43:15.526Z,99524.77
2019-05-03T13:45:42.321Z,99532.34
2019-05-03T13:48:09.099Z,99524.67
2019-05-03T13:50:36.975Z,99525.38
2019-05-03T13:53:04.835Z,99528.79
2019-05-03T13:55:32.069Z,99524.08
2019-05-03T13:57:58.968Z,99526.85
2019-05-03T14:00:25.841Z,99520.05
2019-05-03T14:02:52.599Z,99529.72
2019-05-03T14:05:19.157Z,99526.67
2019-05-03T14:07:45.764Z,99534.96
2019-05-03T14:10:14.124Z,99530.65
2019-05-03T14:12:41.000Z,99518.41
2019-05-03T14:15:08.181Z,99516.91
2019-05-03T14:17:36.104Z,99532.97
2019-05-03T14:20:09.015Z,99529.16
2019-05-03T14:22:37.708Z,99523.36
2019-05-03T14:25:05.456Z,99527.84
2019-05-03T14:27:34.836Z,99528.16
2019-05-03T14:30:05.648Z,99529.69
2019-05-03T14:32:35.697Z,99535.33
2019-05-03T14:35:06.481Z,99532.66
2019-05-03T14:37:34.989Z,99537.80
2019-05-03T14:40:06.147Z,99538.97
2019-05-03T14:42:32.720Z,99549.55
2019-05-03T14:44:59.519Z,99552.75
2019-05-03T14:47:26.207Z,99549.73
2019-05-03T14:49:54.625Z,99552.28
2019-05-03T14:52:21.398Z,99544.56
2019-05-03T14:54:49.940Z,99552.45
2019-05-03T14:57:18.400Z,99547.30
2019-05-03T14:59:47.002Z,99556.27
2019-05-03T15:02:15.685Z,99556.33
2019-05-03T15:04:42.540Z,99549.70
2019-05-03T15:07:09.137Z,99550.86
2019-05-03T15:09:35.915Z,99553.73
2019-05-03T15:12:05.362Z,99551.32
2019-05-03T15:14:32.262Z,99557.20
2019-05-03T15:16:58.910Z,99546.77
2019-05-03T15:19:25.522Z,99557.75
2019-05-03T15:21:52.134Z,99562.06
2019-05-03T15:24:18.719Z,99552.42
2019-05-03T15:26:45.412Z,99555.16
2019-05-03T15:29:12.716Z,99567.46
2019-05-03T15:31:39.296Z,99566.23
2019-05-03T15:34:06.502Z,99570.02
2019-05-03T15:36:33.155Z,99568.44
2019-05-03T15:38:59.952Z,99570.61
2019-05-03T15:41:26.621Z,99570.88
2019-05-03T15:43:55.988Z,99572.64
2019-05-03T15:46:25.201Z,99569.89
2019-05-03T15:48:55.107Z,99576.16
2019-05-03T15:51:22.066Z,99581.52
2019-05-03T15:53:49.741Z,99580.55
2019-05-03T15:56:16.559Z,99587.95
2019-05-03T15:58:46.439Z,99586.52
2019-05-03T16:01:11.618Z,99598.31
2019-05-03T16:03:38.868Z,99595.13
2019-05-03T16:06:05.561Z,99594.45
2019-05-03T16:08:32.177Z,99594.52
2019-05-03T16:10:58.953Z,99595.58
2019-05-03T16:13:25.549Z,99593.92
2019-05-03T16:15:55.027Z,99593.28
2019-05-03T16:18:21.517Z,99597.13
2019-05-03T16:20:48.341Z,99598.01
2019-05-03T16:23:15.464Z,99599.11
2019-05-03T16:25:42.499Z,99594.04
2019-05-03T16:28:10.997Z,99602.27
2019-05-03T16:30:38.864Z,99593.77
2019-05-03T16:33:05.595Z,99603.89
2019-05-03T16:35:32.215Z,99604.00
2019-05-03T16:37:58.891Z,99609.67
2019-05-03T16:40:25.603Z,99605.64
2019-05-03T16:42:53.332Z,99615.80
2019-05-03T16:45:22.497Z,99607.88
2019-05-03T16:47:49.177Z,99610.70
2019-05-03T16:50:16.541Z,99612.94
2019-05-03T16:52:43.141Z,99612.61
2019-05-03T16:55:10.025Z,99617.09
2019-05-03T16:57:37.014Z,99616.28
2019-05-03T17:00:06.215Z,99623.84
2019-05-03T17:02:34.964Z,99628.33
2019-05-03T17:05:05.166Z,99628.66
2019-05-03T17:07:35.354Z,99634.18
2019-05-03T17:10:07.841Z,99635.37
2019-05-03T17:12:36.306Z,99641.21
2019-05-03T17:15:06.479Z,99638.75
2019-05-03T17:17:34.490Z,99634.95
2019-05-03T17:20:06.080Z,99638.15
2019-05-03T17:22:34.510Z,99643.78
2019-05-03T17:25:04.379Z,99645.25
2019-05-03T17:27:31.429Z,99645.66
2019-05-03T17:29:58.197Z,99650.84
2019-05-03T17:32:25.048Z,99648.52
2019-05-03T17:34:51.730Z,99653.11
2019-05-03T17:37:18.374Z,99651.81
2019-05-03T17:39:46.987Z,99645.95
2019-05-03T17:42:15.688Z,99654.91
2019-05-03T17:44:45.133Z,99657.84
2019-05-03T17:47:11.999Z,99662.75
2019-05-03T17:49:38.585Z,99665.11
2019-05-03T17:52:07.637Z,99667.42
2019-05-03T17:54:36.405Z,99665.53
2019-05-03T17:57:05.405Z,99674.21
2019-05-03T17:59:35.074Z,99682.42
2019-05-03T18:02:06.745Z,99679.55
2019-05-03T18:04:35.227Z,99679.53
2019-05-03T18:07:04.555Z,99681.84
2019-05-03T18:09:34.640Z,99684.22
2019-05-03T18:12:04.642Z,99688.06
2019-05-03T18:14:31.670Z,99694.56
2019-05-03T18:16:58.290Z,99695.53
2019-05-03T18:19:24.975Z,99705.13
2019-05-03T18:21:51.584Z,99702.00
2019-05-03T18:24:18.218Z,99708.50
2019-05-03T18:26:44.861Z,99708.01
2019-05-03T18:29:11.777Z,99717.91
2019-05-03T18:31:38.584Z,99721.87
2019-05-03T18:34:18.400Z,99718.54
2019-05-03T18:36:34.669Z,99725.84
2019-05-03T18:39:02.067Z,99725.72
2019-05-03T18:41:30.015Z,99722.92
2019-05-03T18:43:58.798Z,99721.42
2019-05-03T18:46:27.298Z,99728.13
2019-05-03T18:48:55.189Z,99730.70
2019-05-03T18:51:22.280Z,99732.33
2019-05-03T18:53:48.991Z,99728.58
2019-05-03T18:56:16.015Z,99744.00
2019-05-03T18:58:44.742Z,99741.31
2019-05-03T19:01:14.869Z,99734.52
2019-05-03T19:03:45.091Z,99737.77
2019-05-03T19:06:14.115Z,99740.81
2019-05-03T19:08:40.998Z,99751.48
2019-05-03T19:11:11.582Z,99749.23
2019-05-03T19:13:41.606Z,99750.59
2019-05-03T19:16:10.566Z,99753.63
2019-05-03T19:18:39.275Z,99762.13
2019-05-03T19:21:06.016Z,99773.06
2019-05-03T19:23:32.972Z,99775.52
2019-05-03T19:25:59.988Z,99772.66
2019-05-03T19:28:26.926Z,99775.16
2019-05-03T19:30:55.092Z,99775.36
2019-05-03T19:33:21.982Z,99770.89
2019-05-03T19:35:48.865Z,99777.42
2019-05-03T19:38:15.846Z,99780.20
2019-05-03T19:40:42.443Z,99775.95
2019-05-03T19:43:09.182Z,99776.17
2019-05-03T19:45:35.793Z,99777.02
2019-05-03T19:48:03.387Z,99780.02
2019-05-03T19:50:29.960Z,99777.54
2019-05-03T19:52:58.635Z,99775.69
2019-05-03T19:55:25.665Z,99773.77
2019-05-03T19:57:54.831Z,99776.82
2019-05-03T20:00:25.557Z,99777.64
2019-05-03T20:02:54.693Z,99782.33
2019-05-03T20:05:25.253Z,99785.86
2019-05-03T20:07:57.117Z,99783.73
2019-05-03T20:10:25.409Z,99791.81
2019-05-03T20:12:52.950Z,99784.35
2019-05-03T20:15:20.654Z,99785.77
2019-05-03T20:17:56.561Z,99784.04
2019-05-03T20:20:16.709Z,99790.56
2019-05-03T20:22:45.445Z,99788.27
2019-05-03T20:25:15.182Z,99794.66
2019-05-03T20:27:44.381Z,99797.72
2019-05-03T20:30:15.001Z,99796.03
2019-05-03T20:32:42.554Z,99799.62
2019-05-03T20:35:18.123Z,99796.17
2019-05-03T20:37:39.341Z,99794.81
2019-05-03T20:40:06.767Z,99795.56
2019-05-03T20:42:35.789Z,99797.80
2019-05-03T20:45:05.469Z,99795.39
2019-05-03T20:47:35.423Z,99792.30
2019-05-03T20:50:07.389Z,99796.17
2019-05-03T20:52:35.202Z,99794.57
2019-05-03T20:55:04.758Z,99799.21
2019-05-03T20:57:31.811Z,99796.52
2019-05-03T20:59:58.545Z,99794.23
2019-05-03T21:02:25.387Z,99804.61
2019-05-03T21:04:52.234Z,99801.38
2019-05-03T21:07:19.139Z,99809.26
2019-05-03T21:09:45.866Z,99804.14
2019-05-03T21:12:14.594Z,99809.52
2019-05-03T21:14:41.266Z,99805.99
2019-05-03T21:17:09.862Z,99806.09
2019-05-03T21:19:38.411Z,99811.21
2019-05-03T21:22:10.234Z,99803.17
2019-05-03T21:24:40.307Z,99801.73
2019-05-03T21:27:07.011Z,99808.14
2019-05-03T21:29:35.806Z,99799.27
2019-05-03T21:32:04.508Z,99802.61
2019-05-03T21:34:31.301Z,99807.70
2019-05-03T21:36:57.911Z,99805.50
2019-05-03T21:39:25.874Z,99811.17
2019-05-03T21:41:52.508Z,99803.50
2019-05-03T21:44:21.164Z,99805.05
2019-05-03T21:46:49.712Z,99798.39
2019-05-03T21:49:18.208Z,99801.45
2019-05-03T21:51:45.054Z,99800.77
2019-05-03T21:54:12.271Z,99805.09
2019-05-03T21:56:39.005Z,99811.99
2019-05-03T21:59:05.766Z,99808.08
2019-05-03T22:01:37.446Z,99812.63
2019-05-03T22:04:04.517Z,99807.37
2019-05-03T22:06:31.254Z,99812.63
2019-05-03T22:08:58.404Z,99811.09
2019-05-03T22:11:25.438Z,99812.48
2019-05-03T22:13:56.841Z,99821.20
2019-05-03T22:16:24.906Z,99818.27
2019-05-03T22:18:51.681Z,99818.65
2019-05-03T22:21:20.475Z,99822.25
2019-05-03T22:23:49.336Z,99820.66
2019-05-03T22:26:16.208Z,99814.16
2019-05-03T22:28:44.444Z,99821.06
2019-05-03T22:31:11.294Z,99811.31
2019-05-03T22:33:37.969Z,99811.08
2019-05-03T22:36:08.611Z,99811.21
2019-05-03T22:38:36.370Z,99808.85
2019-05-03T22:41:01.822Z,99819.52
2019-05-03T22:43:28.533Z,99814.07
2019-05-03T22:45:55.206Z,99809.48
2019-05-03T22:48:21.996Z,99810.08
2019-05-03T22:50:48.574Z,99811.25
2019-05-03T22:53:15.194Z,99805.30
2019-05-03T22:55:41.906Z,99808.95
2019-05-03T22:58:09.776Z,99807.05
2019-05-03T23:00:36.330Z,99804.37
2019-05-03T23:03:03.227Z,99803.57
2019-05-03T23:05:30.029Z,99812.39
2019-05-03T23:07:56.601Z,99808.81
2019-05-03T23:10:25.531Z,99802.67
2019-05-03T23:12:51.783Z,99802.91
2019-05-03T23:15:18.528Z,99799.19
2019-05-03T23:17:45.222Z,99799.69
2019-05-03T23:20:15.039Z,99797.97
2019-05-03T23:22:41.836Z,99802.17
2019-05-03T23:25:09.225Z,99801.29
2019-05-03T23:27:36.586Z,99801.69
2019-05-03T23:30:05.116Z,99808.03
2019-05-03T23:32:34.930Z,99799.81
2019-05-03T23:35:04.948Z,99797.21
2019-05-03T23:37:32.014Z,99802.14
2019-05-03T23:39:58.658Z,99797.42
2019-05-03T23:42:25.229Z,99798.70
2019-05-03T23:44:51.883Z,99792.46
2019-05-03T23:47:20.444Z,99790.17
2019-05-03T23:49:47.130Z,99787.26
2019-05-03T23:52:17.759Z,99788.83
2019-05-03T23:54:44.339Z,99791.52
2019-05-03T23:57:10.930Z,99781.98
2019-05-03T23:59:39.120Z,99779.54
